Date,TemperatureHighF,TemperatureAvgF,TemperatureLowF,DewpointHighF,DewpointAvgF,DewpointLowF,HumidityHigh,HumidityAvg,HumidityLow,PressureMaxIn,PressureMinIn,WindSpeedMaxMPH,WindSpeedAvgMPH,GustSpeedMaxMPH,PrecipitationSumIn
2013-1-1,22,13,4,1,-11,-36,77,40,7,30.17,29.96,31,16,43,0.00
2013-1-2,31,24,15,-1,-17,-34,34,18,6,30.22,30.11,23,14,33,0.00
2013-1-3,19,12,6,-8,-27,-40,37,16,6,30.20,30.04,33,21,51,0.00
2013-1-4,26,22,18,4,-8,-30,42,27,8,30.31,30.19,25,13,39,0.00
2013-1-5,30,28,25,1,-11,-32,30,18,6,30.42,30.30,21,10,31,0.00
2013-1-6,27,21,13,8,-4,-21,79,35,12,30.37,29.91,20,15,33,0.00
2013-1-7,22,16,11,12,3,-13,89,60,21,30.08,29.88,23,13,45,0.00
2013-1-8,30,27,22,14,2,-26,53,37,9,30.36,30.08,34,26,50,0.00
2013-1-9,36,32,27,11,0,-11,49,25,15,30.48,30.26,29,14,42,0.00
2013-1-10,27,17,7,15,8,-6,89,70,24,30.26,29.52,35,22,52,0.02
2013-1-11,6,-3,-7,3,-7,-11,86,83,82,29.67,29.51,9,2,14,0.02
2013-1-12,1,-4,-8,-3,-8,-12,84,82,81,29.72,29.59,7,2,13,0.00
2013-1-13,1,-4,-7,-2,-9,-100,85,82,82,29.73,29.64,11,4,15,0.00
2013-1-14,-2,-5,-7,-6,-9,-14,84,82,56,29.83,29.62,28,6,40,0.00
2013-1-15,25,13,-1,10,-2,-21,63,52,31,30.33,29.82,45,32,64,0.10
2013-1-17,38,34,31,14,4,-16,39,28,11,30.50,30.43,10,2,14,0.00
2013-1-18,35,32,29,3,-13,-22,28,14,8,30.48,30.40,8,3,13,0.00
2013-1-19,34,31,27,2,-18,-40,27,13,3,30.52,30.42,7,2,10,0.00
2013-1-20,34,30,27,0,-16,-33,27,14,5,30.48,30.37,14,4,17,0.00
2013-1-21,41,34,31,4,-12,-33,23,14,4,30.47,30.37,13,5,16,0.00
2013-1-22,43,37,32,8,-3,-9,25,18,14,30.57,30.46,11,4,14,0.00
2013-1-23,39,35,31,4,-10,-28,29,14,5,30.58,30.48,19,9,29,0.00
2013-1-24,31,29,25,30,25,3,96,85,30,30.52,30.40,18,8,31,0.00
2013-1-25,31,29,28,30,28,27,96,95,95,30.47,30.30,0,0,0,0.00
2013-1-26,31,28,25,30,27,24,96,96,95,30.30,30.00,0,0,0,0.00
2013-1-27,27,24,17,26,23,15,95,94,92,30.10,29.91,0,0,0,0.00
2013-1-28,18,10,3,16,8,0,93,90,88,29.91,29.69,0,0,0,0.02
2013-1-29,9,3,-3,6,0,-6,90,88,86,29.94,29.64,24,1,30,0.02
2013-1-30,8,6,4,6,3,1,90,89,88,30.01,29.91,30,27,34,0.02
2013-2-1,33,30,27,7,-2,-19,40,25,11,30.47,30.40,21,12,31,0.00
2013-2-2,39,34,29,14,-3,-32,39,22,4,30.57,30.45,17,7,27,0.00
2013-2-3,35,26,21,24,13,-29,93,67,5,30.50,30.16,22,8,34,0.00
2013-2-4,34,28,23,22,4,-23,75,40,8,30.30,30.16,24,12,35,0.00
2013-2-5,36,32,25,16,7,-29,59,38,6,30.30,30.18,20,4,28,0.04
2013-2-6,28,23,18,20,12,-3,92,67,30,30.18,30.09,0,0,0,0.02
2013-2-7,29,21,17,19,13,-22,92,72,12,30.25,30.06,0,0,0,0.00
2013-2-8,19,14,6,17,12,3,91,89,87,30.06,29.60,0,0,0,0.00
2013-2-9,8,6,3,5,3,0,88,87,86,29.80,29.49,0,0,0,0.00
2013-2-10,8,5,2,5,2,-1,88,87,86,29.80,29.71,0,0,0,0.00
2013-2-11,18,5,0,16,2,-3,90,87,85,29.93,29.76,0,0,0,0.00
2013-2-12,22,14,1,11,-7,-25,85,44,13,30.18,29.93,0,0,0,0.00
2013-2-13,32,26,20,17,1,-30,61,39,6,30.27,30.15,0,0,0,0.00
2013-2-14,29,26,23,10,-8,-33,51,24,5,30.32,30.19,0,0,0,0.00
2013-2-15,26,24,22,-4,-14,-19,31,18,13,30.51,30.30,0,0,0,0.01
2013-2-16,38,31,25,7,-12,-33,43,15,5,30.55,30.31,0,0,0,0.01
2013-2-17,28,23,15,8,0,-13,60,39,16,30.31,29.97,0,0,0,0.00
2013-2-18,28,21,15,8,-3,-28,61,37,10,30.18,30.01,0,0,0,0.00
2013-2-19,22,17,12,11,5,-14,90,60,25,30.08,29.57,0,0,0,0.00
2013-2-20,14,10,7,11,7,4,89,87,86,29.69,29.48,0,0,0,0.00
2013-2-21,14,9,5,12,6,2,90,88,86,29.86,29.68,0,0,0,0.00
2013-2-22,21,10,2,8,1,-5,87,69,34,30.08,29.81,0,0,0,0.00
2013-2-23,22,17,5,15,8,-2,90,68,39,30.09,29.75,0,0,0,0.00
2013-2-24,5,2,-4,2,-2,-8,86,85,83,29.94,29.60,0,0,0,0.00
2013-2-25,30,18,4,6,-8,-31,86,35,9,30.16,29.93,21,4,36,0.10
2013-2-26,19,13,8,1,-8,-27,57,38,13,30.05,29.86,46,20,67,0.06
2013-2-27,22,17,12,-1,-25,-51,37,16,3,30.23,30.03,37,11,46,0.00
2013-2-28,29,22,13,7,-10,-30,49,25,9,30.47,30.22,36,20,47,0.00
2013-3-1,37,31,25,13,6,-14,50,34,10,30.61,30.42,37,18,49,0.00
2013-3-2,42,37,31,19,1,-22,48,26,6,30.66,30.47,13,6,21,0.00
2013-3-3,32,26,21,20,9,-20,86,52,10,30.47,30.10,22,14,36,0.00
2013-3-4,30,23,18,23,17,1,92,78,35,30.32,30.03,16,8,26,0.00
2013-3-5,34,29,24,16,-2,-58,67,34,1,30.38,30.26,22,9,34,0.00
2013-3-6,32,25,20,20,15,5,87,65,41,30.27,30.13,19,15,38,0.00
2013-3-7,31,24,20,19,13,6,90,64,49,30.14,30.01,25,19,40,0.00
2013-3-8,21,16,5,19,14,2,92,90,86,30.01,29.70,24,8,39,0.00
2013-3-9,19,13,7,17,10,4,92,89,87,30.03,29.72,0,0,0,0.00
2013-3-10,30,19,11,13,6,-17,90,65,12,30.37,30.03,30,8,41,0.00
2013-3-11,36,32,28,9,0,-16,39,26,12,30.39,30.31,29,11,39,0.00
2013-3-12,39,33,30,21,13,4,65,44,31,30.52,30.35,14,5,21,0.00
2013-3-13,42,37,29,23,13,-1,60,39,23,30.62,30.50,19,6,29,0.00
2013-3-14,49,44,39,17,3,-24,30,20,5,30.69,30.59,17,6,26,0.00
2013-3-15,46,40,33,21,12,-21,57,33,6,30.63,30.36,12,8,21,0.00
2013-3-16,40,33,27,26,19,13,91,58,38,30.37,30.16,26,10,42,0.00
2013-3-17,35,29,24,20,8,-2,75,43,23,30.19,30.11,18,12,38,0.00
2013-3-18,36,28,24,15,6,-2,60,38,28,30.29,30.16,16,11,29,0.00
2013-3-19,35,28,25,20,14,8,75,56,43,30.39,30.20,12,6,19,0.00
2013-3-20,33,29,26,23,20,14,85,71,57,30.39,30.14,21,14,36,0.00
2013-3-21,35,28,23,23,11,-3,93,53,26,30.14,30.04,20,12,36,0.00
2013-3-22,33,26,19,15,3,-16,72,40,16,30.05,29.96,23,12,40,0.00
2013-3-23,22,17,10,-6,-14,-24,35,24,15,30.10,29.85,46,22,74,0.01
2013-3-24,28,21,15,7,-1,-100,66,41,26,30.16,30.04,43,5,56,0.01
2013-3-25,35,26,20,15,10,3,59,49,39,30.29,30.12,30,12,43,0.00
2013-3-26,35,29,25,15,11,6,54,47,38,30.29,30.19,22,13,36,0.00
2013-3-27,36,29,25,16,12,3,62,49,33,30.29,30.17,16,11,29,0.00
2013-3-28,36,29,24,20,16,9,73,58,47,30.41,30.24,14,9,28,0.00
2013-3-29,40,32,26,22,17,7,78,54,34,30.50,30.39,8,4,17,0.00
2013-3-30,36,33,29,23,19,-100,74,60,46,30.49,30.39,9,5,19,0.00
2013-3-31,40,33,28,25,21,18,74,62,51,30.42,30.26,17,8,28,0.00
2013-4-1,36,28,21,26,14,-2,93,60,30,30.26,30.16,22,15,36,0.00
2013-4-2,28,24,20,22,18,11,91,81,66,30.22,30.11,28,12,39,0.00
2013-4-3,40,31,23,21,10,2,91,43,24,30.46,30.19,38,13,49,0.00
2013-4-4,43,36,31,20,12,-5,55,39,19,30.50,30.38,11,6,18,0.00
2013-4-5,41,33,28,26,18,-7,72,55,16,30.38,30.26,19,13,34,0.00
2013-4-6,40,33,28,26,20,7,76,58,33,30.34,30.25,15,8,24,0.00
2013-4-7,40,32,27,24,20,14,81,61,40,30.26,30.06,19,9,31,0.00
2013-4-8,28,22,15,24,19,13,93,91,80,30.06,29.44,26,11,43,0.00
2013-4-9,20,15,11,18,13,8,92,90,89,29.91,29.52,0,0,0,0.00
2013-4-10,25,17,13,19,13,10,91,85,66,30.14,29.91,45,10,62,0.01
2013-4-11,35,28,24,22,16,9,82,59,39,30.18,30.09,45,15,65,0.01
2013-4-12,37,30,25,21,17,12,72,57,44,30.20,30.07,15,6,21,0.00
2013-4-13,39,32,28,21,19,15,72,57,45,30.19,30.05,22,13,42,0.00
2013-4-14,39,30,25,25,22,15,88,71,53,30.05,29.96,22,16,38,0.00
2013-4-15,34,28,22,27,24,20,93,87,70,29.97,29.88,26,18,47,0.00
2013-4-16,25,22,15,23,20,13,93,92,89,29.88,29.77,21,10,34,0.00
2013-4-17,17,13,8,13,8,1,91,82,49,30.01,29.76,20,8,31,0.00
2013-4-18,30,17,5,4,-7,-16,80,38,15,30.31,29.92,30,15,45,0.00
2013-4-19,36,29,23,10,0,-17,50,29,12,30.36,30.21,15,7,24,0.00
2013-4-20,38,30,25,18,11,2,55,45,29,30.35,30.16,23,13,37,0.00
2013-4-21,44,37,29,17,8,-24,40,31,7,30.45,30.31,21,11,31,0.00
2013-4-22,46,37,32,20,14,5,47,38,30,30.40,30.23,21,12,38,0.00
2013-4-23,40,32,28,19,7,-15,66,37,12,30.31,30.16,18,10,35,0.00
2013-4-24,42,35,29,18,12,-13,54,40,13,30.34,30.24,14,9,28,0.00
2013-4-25,36,31,27,22,17,11,77,58,38,30.36,30.21,15,9,29,0.00
2013-4-26,41,34,27,21,14,7,77,45,32,30.55,30.34,17,8,25,0.00
2013-4-27,46,38,33,15,8,-1,33,28,19,30.55,30.47,19,9,31,0.00
2013-4-28,52,43,36,16,10,1,34,26,19,30.48,30.41,16,6,24,0.00
2013-4-29,52,45,40,19,15,11,35,30,24,30.41,30.30,17,9,27,0.00
2013-4-30,47,41,35,20,14,10,50,34,23,30.30,30.23,24,16,42,0.00
2013-5-1,44,38,32,25,12,-14,61,37,10,30.51,30.26,18,9,33,0.00
2013-5-2,42,37,31,1,-22,-43,21,8,2,30.59,30.46,31,16,44,0.00
2013-5-3,48,40,33,14,-4,-36,39,19,3,30.56,30.30,10,6,23,0.00
2013-5-4,45,38,33,13,4,-6,38,24,15,30.29,30.20,16,9,30,0.00
2013-5-5,39,32,27,22,15,8,75,49,38,30.28,30.15,18,14,31,0.00
2013-5-6,31,27,24,29,24,15,95,89,67,30.24,30.14,21,13,36,0.00
2013-5-7,29,26,20,28,24,-100,95,93,92,30.22,30.07,14,2,19,0.01
2013-5-8,30,24,20,29,23,18,96,94,92,30.31,30.11,0,0,0,0.06
2013-5-9,32,27,24,30,25,22,95,94,92,30.32,30.23,8,1,12,0.11
2013-5-29,48,42,36,27,24,22,62,49,40,30.28,30.17,18,12,36,0.00
2013-5-30,53,43,34,32,30,23,92,61,39,30.44,30.27,15,10,31,0.00
2013-5-31,57,46,37,36,29,16,94,54,28,30.55,30.40,14,7,23,0.00
2013-6-1,57,50,42,24,17,8,36,26,20,30.57,30.50,16,6,25,0.00
2013-6-2,57,51,46,29,24,12,47,35,24,30.54,30.42,18,10,31,0.00
2013-6-3,57,48,41,31,24,18,62,41,26,30.52,30.39,12,7,23,0.00
2013-6-4,56,48,43,25,20,13,44,32,23,30.54,30.47,12,7,24,0.00
2013-6-5,59,50,43,29,23,17,44,34,25,30.57,30.49,10,5,15,0.00
2013-6-6,60,53,48,25,20,16,34,27,21,30.59,30.51,19,8,26,0.00
2013-6-7,66,56,49,24,18,12,29,23,14,30.59,30.52,23,10,31,0.00
2013-6-8,70,58,51,26,21,16,34,24,16,30.62,30.52,16,8,26,0.00
2013-6-9,69,58,52,29,23,17,35,26,20,30.68,30.58,17,8,27,0.00
2013-6-10,60,54,47,21,12,-2,28,19,11,30.63,30.50,21,13,36,0.00
2013-6-11,61,50,42,32,22,11,68,34,19,30.67,30.48,22,11,36,0.00
2013-6-12,63,55,49,28,22,3,38,28,14,30.73,30.64,13,7,29,0.00
2013-6-13,59,52,47,35,28,22,56,40,31,30.66,30.55,21,13,36,0.00
2013-6-14,59,50,44,28,26,21,51,39,29,30.58,30.51,16,10,32,0.00
2013-6-15,55,48,44,39,31,24,62,51,39,30.60,30.51,20,11,35,0.00
2013-6-16,58,50,44,31,25,20,54,39,27,30.66,30.57,17,9,28,0.00
2013-6-17,59,50,44,27,18,4,42,28,15,30.63,30.55,12,7,23,0.00
2013-6-18,59,50,44,21,15,2,30,24,15,30.56,30.43,18,10,31,0.00
2013-6-19,56,48,42,21,13,4,32,25,16,30.44,30.35,22,15,41,0.00
2013-6-20,55,45,42,20,15,10,38,29,24,30.47,30.38,18,13,30,0.00
2013-6-21,55,53,50,20,17,15,26,24,22,30.51,30.47,16,15,29,0.00
2013-6-22,56,50,42,27,22,12,43,33,30,30.53,30.44,16,9,25,0.00
2013-6-23,55,47,42,23,17,7,47,30,21,30.48,30.34,19,11,32,0.00
2013-6-24,52,42,37,29,24,19,69,50,29,30.47,30.31,22,17,34,0.00
2013-6-25,60,48,40,30,23,11,50,37,27,30.63,30.46,16,7,22,0.00
2013-6-26,66,56,46,29,22,11,39,26,22,30.78,30.64,9,4,17,0.00
2013-6-27,69,61,55,34,25,-100,33,26,20,30.86,30.81,8,4,18,0.00
2013-6-28,70,64,58,34,29,23,37,28,22,30.86,30.76,16,6,32,0.00
2013-6-29,68,62,59,36,32,27,38,32,27,30.78,30.69,18,8,29,0.00
2013-6-30,68,62,52,39,33,28,57,34,25,30.74,30.65,21,7,30,0.03
2013-7-1,69,60,51,38,33,28,58,37,23,30.74,30.68,16,7,24,0.03
2013-7-2,63,56,46,46,38,27,74,52,30,30.75,30.63,29,8,41,0.16
2013-7-3,64,56,51,45,40,34,64,55,44,30.69,30.58,19,8,29,0.16
2013-7-4,62,57,47,44,38,-100,80,51,38,30.62,30.55,22,8,32,0.29
2013-7-5,61,53,49,48,44,36,85,71,49,30.62,30.55,8,5,16,0.29
2013-7-6,55,51,47,47,43,39,84,74,58,30.60,30.54,18,4,30,0.08
2013-7-7,60,56,54,48,40,36,69,54,43,30.68,30.59,12,6,23,0.04
2013-7-8,62,56,52,40,35,29,53,45,38,30.78,30.66,14,5,21,0.01
2013-7-9,67,59,52,38,31,26,44,35,24,30.84,30.75,15,7,26,0.01
2013-7-10,63,56,52,45,32,-100,77,44,33,30.77,30.66,15,5,26,0.00
2013-7-11,54,50,44,49,45,36,96,85,51,30.68,30.57,14,8,25,0.01
2013-7-12,53,47,43,46,37,-100,96,79,62,30.65,30.57,12,5,21,0.08
2013-7-13,55,51,45,50,43,38,91,74,58,30.70,30.63,10,4,16,0.62
2013-7-14,59,53,48,47,43,39,87,71,58,30.72,30.62,13,5,25,0.08
2013-7-15,54,51,48,48,44,40,87,77,69,30.65,30.56,16,6,22,0.26
2013-7-16,50,48,45,47,38,-100,94,80,73,30.70,30.57,12,6,22,1.93
2013-7-17,53,50,48,50,46,42,93,86,74,30.75,30.69,10,4,21,0.01
2013-7-18,57,52,48,51,46,40,93,81,66,30.74,30.64,14,5,24,0.08
2013-7-19,56,52,48,50,46,42,87,80,69,30.68,30.59,14,7,27,0.71
2013-7-20,48,47,46,45,44,42,94,90,81,30.60,30.55,13,9,29,0.50
2013-7-21,55,51,45,51,45,38,94,81,57,30.63,30.53,18,6,31,0.27
2013-7-22,53,50,46,49,43,39,94,77,60,30.69,30.58,14,4,22,0.25
2013-7-23,53,50,48,50,45,39,93,81,62,30.69,30.63,13,3,23,0.31
2013-7-24,56,52,51,50,44,-100,90,77,69,30.70,30.63,11,4,17,0.05
2013-7-25,56,52,48,50,46,41,94,81,60,30.78,30.64,15,7,22,0.13
2013-7-26,58,54,48,52,42,-100,93,76,58,30.82,30.76,11,4,19,0.35
2013-7-28,49,46,41,48,41,-100,97,93,84,30.58,30.52,15,8,30,1.27
2013-7-29,45,43,42,43,42,41,95,94,92,30.57,30.55,10,8,22,1.67
2013-7-31,59,54,49,45,43,41,82,69,55,30.84,30.74,11,6,24,0.09
2013-8-1,54,50,47,49,43,-100,95,83,69,30.75,30.64,10,6,21,0.01
2013-8-2,56,48,45,50,46,42,97,90,69,30.70,30.60,9,6,18,0.00
2013-8-3,56,50,45,48,42,-100,89,76,62,30.73,30.64,8,4,15,0.27
2013-8-4,53,50,47,46,42,38,89,74,65,30.76,30.68,8,4,18,0.06
2013-8-5,56,50,45,43,39,33,85,67,53,30.72,30.62,7,4,30,0.01
2013-8-6,47,43,40,40,37,31,95,79,53,30.64,30.53,34,14,47,0.46
2013-8-7,54,45,40,45,38,-100,95,83,69,30.64,30.52,30,10,43,0.22
2013-8-8,55,48,43,37,32,26,72,54,44,30.64,30.57,11,5,18,0.01
2013-8-9,55,49,44,31,28,23,51,44,35,30.64,30.55,13,8,27,0.00
2013-8-10,54,48,43,39,31,27,86,53,45,30.70,30.63,13,10,28,0.00
2013-8-11,54,49,43,44,37,-100,79,69,59,30.69,30.61,17,6,23,0.18
2013-8-12,56,51,45,39,36,33,75,58,45,30.68,30.62,12,5,19,0.02
2013-8-13,59,51,46,36,29,-100,61,46,37,30.74,30.66,11,6,22,0.00
2013-8-14,61,53,49,42,35,-100,64,55,48,30.75,30.68,9,5,16,0.00
2013-8-15,54,42,47,43,13,-100,77,57,57,30.77,30.71,10,5,19,0.00
2013-8-16,61,52,49,45,33,-100,74,59,46,30.80,30.73,8,3,17,0.02
2013-8-17,58,54,51,45,42,38,77,63,51,30.79,30.75,6,4,12,0.10
2013-8-22,53,50,48,46,44,41,86,78,68,30.72,30.61,9,4,15,0.01
2013-8-23,54,49,45,45,42,39,90,78,64,30.65,30.53,11,7,20,0.02
2013-8-24,48,44,41,44,38,-100,96,84,72,30.62,30.53,11,5,17,0.43
2013-8-25,45,43,34,44,39,-100,97,94,91,30.66,30.60,16,7,25,0.40
2013-8-26,49,47,43,48,46,42,98,97,97,30.69,30.62,17,10,34,1.30
2013-8-27,51,46,45,48,45,44,98,96,89,30.66,30.60,13,9,25,1.00
2013-9-8,49,44,41,48,40,-100,97,93,87,30.57,30.42,13,6,22,0.59
2013-9-9,44,42,40,43,40,38,97,93,84,30.45,30.32,11,5,22,0.63
2013-9-10,42,40,38,41,39,37,97,97,91,30.43,30.33,10,6,20,0.29
2013-9-11,42,40,37,41,38,36,98,96,84,30.54,30.40,8,4,16,0.25
2013-9-12,48,43,38,43,39,34,93,85,63,30.57,30.49,8,3,14,0.01
2013-9-13,51,46,41,44,40,37,89,82,73,30.48,30.41,8,4,14,0.00
2013-9-14,50,44,42,43,37,-100,93,83,74,30.46,30.39,9,4,12,0.08
2013-10-2,45,39,35,31,24,8,75,54,29,30.45,30.33,13,7,23,0.00
2013-10-3,43,35,29,31,27,17,95,73,47,30.34,30.17,18,14,37,0.00
2013-10-4,34,29,21,19,12,-4,59,49,26,30.38,30.20,19,7,27,0.00
2013-10-5,41,33,26,17,3,-100,41,30,17,30.56,30.32,28,13,41,0.00
2013-10-6,52,50,46,23,18,7,34,29,18,30.68,30.63,5,3,10,0.00
2013-10-7,53,44,37,19,12,4,39,28,18,30.60,30.44,16,10,30,0.00
2013-10-8,42,36,31,25,22,16,79,58,41,30.43,30.16,23,16,38,0.00
2013-10-9,34,30,26,29,24,15,95,79,51,30.15,29.87,29,21,48,0.00
2013-10-10,25,21,16,24,18,13,94,90,60,30.12,29.77,14,2,27,0.00
2013-10-18,43,37,29,13,3,-8,48,25,14,30.44,30.25,25,7,37,0.00
2013-10-19,44,38,33,18,8,-100,41,32,21,30.48,30.42,6,4,15,0.00
2013-10-20,44,38,33,12,10,4,40,31,22,30.38,30.32,20,8,35,0.00
2013-10-21,44,38,33,19,14,8,49,37,29,30.49,30.34,24,8,33,0.00
2013-10-22,45,42,35,20,14,-1,50,33,15,30.53,30.47,8,5,16,0.00
2013-10-23,45,41,34,20,16,7,47,37,22,30.49,30.43,12,6,20,0.00
2013-10-24,41,38,35,26,20,14,68,50,38,30.47,30.41,16,8,33,0.00
2013-10-25,41,35,31,29,23,14,78,61,45,30.52,30.44,28,9,41,0.00
2013-10-26,40,35,32,25,20,-100,71,59,50,30.60,30.51,22,10,29,0.00
2013-10-27,41,35,28,26,22,18,78,59,43,30.43,30.09,22,13,39,0.00
2013-10-28,29,25,23,24,20,-100,93,85,73,30.08,29.94,46,25,55,0.00
2013-10-29,27,22,18,25,18,-100,93,91,91,30.06,29.92,19,1,30,0.00
2013-10-30,23,18,15,21,12,-100,93,86,58,30.19,30.00,0,0,0,0.00
2013-12-26,30,28,26,10,1,-11,51,32,16,30.49,30.43,28,21,41,0.00
2013-12-27,35,32,25,12,9,4,40,37,33,30.48,30.43,20,10,35,0.00
2013-12-28,28,22,19,16,8,-100,86,59,45,30.27,30.10,22,11,32,0.00
2013-12-29,19,18,17,12,4,-7,75,55,31,30.16,30.05,17,12,34,0.00
2013-12-30,34,32,28,10,4,-7,40,32,18,30.47,30.33,23,9,41,0.00
2013-12-31,35,32,27,14,11,9,49,42,34,30.46,30.34,15,8,31,0.00
2014-1-1,37,31,27,16,10,0,62,42,20,30.45,30.27,28,14,43,0.00